Time;durP1;ratioP1;P1;durP2;ratioP2;P2;SDS_P1;SDS_P2;PMS_P1;PMS_P2;Temp;Humidity;BMP_temperature;BMP_pressure;BME280_temperature;BME280_humidity;BME280_pressure;Samples;Min_cycle;Max_cycle;Signal;HPM_P1;HPM_P2
2021/04/15 00:00:30;;;;;;;4.80;4.40;;;;;;;10.92;50.77;94568.38;5017162;28;96886;-65
2021/04/15 00:02:58;;;;;;;4.82;4.22;;;;;;;11.92;49.67;94574.38;5016006;28;99639;-66
2021/04/15 00:05:26;;;;;;;5.03;4.63;;;;;;;12.96;47.97;94576.28;5016422;28;99002;-66
2021/04/15 00:07:52;;;;;;;6.82;5.00;;;;;;;13.80;46.36;94576.22;5017200;28;96813;-66
2021/04/15 00:10:17;;;;;;;6.20;5.53;;;;;;;14.49;45.59;94578.28;5017455;28;96928;-64
2021/04/15 00:12:43;;;;;;;6.55;5.63;;;;;;;15.00;44.71;94576.47;5016501;28;99045;-64
2021/04/15 00:15:09;;;;;;;8.60;6.50;;;;;;;15.51;44.22;94577.19;5016417;28;99424;-64
2021/04/15 00:17:35;;;;;;;10.55;8.43;;;;;;;15.90;43.43;94576.19;5017026;28;96811;-64
2021/04/15 00:20:01;;;;;;;10.68;9.27;;;;;;;16.26;43.02;94576.59;5015811;28;96985;-64
2021/04/15 00:22:26;;;;;;;11.88;9.48;;;;;;;16.56;42.48;94573.78;5016241;28;99718;-64
2021/04/15 00:24:51;;;;;;;13.45;10.15;;;;;;;16.82;42.03;94572.06;5016454;28;99842;-65
2021/04/15 00:27:17;;;;;;;9.70;8.20;;;;;;;17.05;41.40;94573.84;5016138;28;96708;-64
2021/04/15 00:29:43;;;;;;;8.00;7.15;;;;;;;17.28;41.22;94567.41;5016647;28;96968;-65
2021/04/15 00:32:08;;;;;;;8.10;7.30;;;;;;;17.48;40.73;94565.97;5016756;28;99533;-64
2021/04/15 00:34:34;;;;;;;9.10;7.25;;;;;;;17.68;40.29;94562.97;5016286;28;98826;-64
2021/04/15 00:36:59;;;;;;;7.65;6.63;;;;;;;17.90;39.65;94568.53;5016738;28;96676;-65
2021/04/15 00:39:24;;;;;;;9.50;8.45;;;;;;;18.07;39.07;94562.38;5016308;28;96929;-64
2021/04/15 00:41:50;;;;;;;10.68;9.57;;;;;;;18.16;39.33;94562.03;5016368;28;99241;-64
2021/04/15 00:44:16;;;;;;;7.88;7.10;;;;;;;18.30;38.67;94558.56;5015754;28;99152;-65
2021/04/15 00:46:47;;;;;;;7.07;6.18;;;;;;;18.44;38.35;94562.50;5016507;28;96768;-65
2021/04/15 00:49:18;;;;;;;7.32;6.63;;;;;;;18.52;38.23;94553.91;5015653;28;96786;-66
2021/04/15 00:51:46;;;;;;;7.25;6.55;;;;;;;18.58;38.02;94557.03;5014779;28;99581;-67
2021/04/15 00:54:31;;;;;;;7.80;7.10;;;;;;;18.67;37.73;94560.19;5014688;28;99391;-68
2021/04/15 00:56:57;;;;;;;9.00;7.50;;;;;;;18.75;37.60;94566.47;5015540;28;96798;-67
2021/04/15 00:59:23;;;;;;;7.70;6.90;;;;;;;18.81;37.37;94553.97;4998267;28;96908;-68
2021/04/15 01:01:48;;;;;;;8.82;6.95;;;;;;;18.85;37.54;94553.97;5014574;28;99522;-69
2021/04/15 01:04:14;;;;;;;8.27;7.30;;;;;;;18.89;37.44;94543.00;5014537;28;99045;-66
2021/04/15 01:06:40;;;;;;;8.70;7.28;;;;;;;18.91;37.32;94549.66;4998510;28;96674;-67
2021/04/15 01:09:05;;;;;;;8.63;6.45;;;;;;;18.93;37.27;94552.78;5016211;28;96943;-67
2021/04/15 01:11:46;;;;;;;8.52;7.55;;;;;;;18.97;37.34;94555.53;4997843;28;99605;-67
2021/04/15 01:14:23;;;;;;;9.20;8.20;;;;;;;19.01;37.37;94552.81;5015486;28;97745;-68
2021/04/15 01:17:09;;;;;;;11.20;8.45;;;;;;;19.01;37.35;94561.03;4999223;28;96688;-67
2021/04/15 01:19:57;;;;;;;10.82;8.52;;;;;;;19.01;37.52;94544.63;5014906;28;96720;-69
2021/04/15 01:22:54;;;;;;;10.07;8.68;;;;;;;19.03;37.29;94553.22;5015597;28;99323;-67
2021/04/15 01:25:20;;;;;;;8.50;7.60;;;;;;;19.02;37.17;94557.13;5012418;28;99337;-66
2021/04/15 01:27:50;;;;;;;9.05;8.10;;;;;;;19.05;37.06;94550.88;5015995;28;96725;-72
2021/04/15 01:30:36;;;;;;;7.63;6.82;;;;;;;18.67;38.08;94551.97;4998604;28;96994;-66
2021/04/15 01:33:12;;;;;;;6.93;5.53;;;;;;;18.52;38.40;94558.63;5014404;28;99582;-67
2021/04/15 01:35:49;;;;;;;4.78;4.35;;;;;;;18.33;38.81;94552.31;5014428;28;99686;-67
2021/04/15 01:38:30;;;;;;;4.13;3.72;;;;;;;18.27;38.76;94548.38;5016086;28;96755;-67
2021/04/15 01:41:19;;;;;;;3.03;2.83;;;;;;;18.24;38.94;94548.41;4997867;28;96978;-67
2021/04/15 01:43:55;;;;;;;2.92;2.72;;;;;;;18.26;38.80;94551.50;5010061;28;99781;-67
2021/04/15 01:46:23;;;;;;;2.40;2.20;;;;;;;18.16;38.77;94547.56;4997462;28;99707;-66
2021/04/15 01:48:50;;;;;;;1.50;1.40;;;;;;;18.13;38.95;94562.00;4997337;28;96649;-66
2021/04/15 01:51:15;;;;;;;1.58;1.48;;;;;;;18.10;39.18;94565.50;5015185;28;97165;-66
2021/04/15 01:54:05;;;;;;;1.08;1.08;;;;;;;18.17;38.87;94554.59;5014342;28;99734;-66
2021/04/15 01:56:34;;;;;;;1.00;1.00;;;;;;;18.16;38.99;94550.31;5013451;28;97182;-67
2021/04/15 01:59:03;;;;;;;0.80;0.80;;;;;;;18.17;38.79;94562.81;4996736;28;96714;-67
2021/04/15 02:01:31;;;;;;;0.80;0.80;;;;;;;18.33;38.69;94546.84;4997247;28;96873;-62
2021/04/15 02:03:59;;;;;;;0.70;0.70;;;;;;;18.59;38.65;94561.34;4996961;28;99767;-62
2021/04/15 02:06:26;;;;;;;0.80;0.80;;;;;;;18.72;38.40;94552.75;5011864;28;99327;-63
2021/04/15 02:09:00;;;;;;;0.57;0.57;;;;;;;18.85;38.37;94553.97;5012868;28;96877;-63
2021/04/15 02:11:32;;;;;;;0.50;0.50;;;;;;;18.91;38.32;94563.34;5011505;28;97387;-64
2021/04/15 02:13:59;;;;;;;0.35;0.35;;;;;;;18.99;38.65;94563.38;5012830;28;99415;-64
2021/04/15 02:16:26;;;;;;;0.43;0.43;;;;;;;19.05;38.34;94561.81;5012758;28;99276;-64
2021/04/15 02:19:06;;;;;;;0.28;0.28;;;;;;;19.12;38.22;94561.81;4996515;28;96815;-64
2021/04/15 02:21:51;;;;;;;0.38;0.38;;;;;;;19.18;38.41;94571.19;5011355;28;96934;-63
2021/04/15 02:24:44;;;;;;;0.30;0.30;;;;;;;19.21;38.35;94575.88;5011092;28;99356;-62
2021/04/15 02:27:13;;;;;;;0.20;0.20;;;;;;;19.23;38.53;94584.47;5013809;28;98958;-63
2021/04/15 02:29:41;;;;;;;0.20;0.20;;;;;;;19.25;38.13;94582.13;5016546;28;96938;-64
2021/04/15 02:32:18;;;;;;;0.63;0.30;;;;;;;19.29;38.25;94581.34;5015106;28;96993;-64
2021/04/15 02:34:46;;;;;;;0.20;0.20;;;;;;;19.24;38.60;94583.31;4998928;28;99555;-64
2021/04/15 02:37:15;;;;;;;0.20;0.20;;;;;;;19.29;38.55;94586.84;5017286;28;99332;-64
